createdAt,value
2018-11-02T00:00:31.267Z,8.40
2018-11-02T00:03:00.427Z,8.40
2018-11-02T00:05:28.819Z,8.40
2018-11-02T00:07:57.163Z,8.40
2018-11-02T00:10:25.617Z,8.40
2018-11-02T00:12:53.961Z,8.40
2018-11-02T00:15:23.109Z,8.50
2018-11-02T00:17:51.698Z,8.50
2018-11-02T00:20:20.071Z,8.50
2018-11-02T00:22:48.416Z,8.50
2018-11-02T00:25:16.755Z,8.60
2018-11-02T00:27:45.096Z,8.60
2018-11-02T00:30:13.456Z,8.60
2018-11-02T00:32:41.944Z,8.70
2018-11-02T00:35:10.349Z,8.70
2018-11-02T00:37:38.691Z,8.70
2018-11-02T00:40:07.074Z,8.80
2018-11-02T00:42:36.224Z,8.90
2018-11-02T00:45:04.688Z,8.90
2018-11-02T00:47:33.015Z,8.90
2018-11-02T00:50:02.160Z,8.90
2018-11-02T00:52:30.495Z,8.90
2018-11-02T00:54:58.889Z,8.90
2018-11-02T00:57:27.229Z,8.90
2018-11-02T00:59:55.616Z,8.90
2018-11-02T01:02:24.020Z,8.90
2018-11-02T01:04:53.123Z,9.10
2018-11-02T01:07:21.470Z,9.00
2018-11-02T01:09:49.811Z,9.20
2018-11-02T01:12:18.149Z,9.30
2018-11-02T01:14:47.383Z,9.70
2018-11-02T01:17:15.720Z,9.70
2018-11-02T01:19:44.855Z,9.90
2018-11-02T01:22:13.199Z,9.90
2018-11-02T01:24:41.557Z,10.00
2018-11-02T01:27:09.989Z,10.00
2018-11-02T01:29:38.347Z,10.00
2018-11-02T01:32:06.742Z,10.00
2018-11-02T01:34:35.117Z,10.10
2018-11-02T01:37:03.455Z,10.10
2018-11-02T01:39:31.801Z,10.10
2018-11-02T01:42:00.145Z,10.10
2018-11-02T01:44:28.499Z,10.10
2018-11-02T01:46:56.855Z,10.00
2018-11-02T01:49:25.303Z,10.00
2018-11-02T01:51:53.645Z,9.90
2018-11-02T01:54:22.793Z,9.80
2018-11-02T01:56:51.137Z,9.80
2018-11-02T01:59:19.514Z,9.80
2018-11-02T02:01:47.870Z,9.80
2018-11-02T02:04:16.983Z,9.90
2018-11-02T02:06:46.076Z,9.90
2018-11-02T02:09:15.209Z,9.90
2018-11-02T02:11:43.549Z,9.90
2018-11-02T02:14:12.653Z,9.90
2018-11-02T02:16:40.988Z,9.90
2018-11-02T02:19:09.329Z,9.90
2018-11-02T02:21:37.743Z,9.80
2018-11-02T02:24:06.064Z,9.80
2018-11-02T02:26:34.480Z,9.70
2018-11-02T02:29:02.841Z,9.70
2018-11-02T02:31:31.235Z,9.70
2018-11-02T02:33:59.587Z,9.60
2018-11-02T02:36:28.669Z,9.60
2018-11-02T02:38:57.817Z,9.70
2018-11-02T02:41:26.151Z,9.70
2018-11-02T02:43:55.233Z,9.70
2018-11-02T02:46:24.359Z,9.70
2018-11-02T02:48:52.753Z,9.70
2018-11-02T02:51:21.160Z,9.70
2018-11-02T02:53:49.506Z,9.60
2018-11-02T02:56:17.871Z,9.60
2018-11-02T02:58:46.306Z,9.50
2018-11-02T03:01:14.647Z,9.50
2018-11-02T03:03:43.083Z,9.40
2018-11-02T03:06:11.429Z,9.30
2018-11-02T03:08:39.785Z,9.30
2018-11-02T03:11:08.393Z,9.20
2018-11-02T03:13:36.535Z,9.20
2018-11-02T03:16:04.875Z,9.20
2018-11-02T03:18:33.259Z,9.10
2018-11-02T03:21:01.535Z,9.10
2018-11-02T03:23:30.643Z,9.20
2018-11-02T03:25:59.756Z,9.30
2018-11-02T03:28:28.091Z,9.30
2018-11-02T03:30:56.445Z,9.30
2018-11-02T03:33:24.819Z,9.30
2018-11-02T03:35:53.181Z,9.30
2018-11-02T03:38:21.510Z,9.30
2018-11-02T03:40:49.883Z,9.30
2018-11-02T03:43:18.213Z,9.30
2018-11-02T03:45:46.535Z,9.30
2018-11-02T03:48:14.885Z,9.20
2018-11-02T03:50:43.219Z,9.20
2018-11-02T03:53:11.571Z,9.20
2018-11-02T03:55:39.899Z,9.10
2018-11-02T03:58:08.238Z,9.10
2018-11-02T04:00:36.679Z,9.10
2018-11-02T04:03:05.075Z,9.10
2018-11-02T04:05:33.431Z,9.10
2018-11-02T04:08:01.762Z,9.10
2018-11-02T04:10:30.104Z,9.10
2018-11-02T04:12:58.445Z,9.10
2018-11-02T04:15:26.789Z,9.10
2018-11-02T04:17:55.250Z,9.10
2018-11-02T04:20:23.613Z,9.10
2018-11-02T04:22:51.935Z,9.10
2018-11-02T04:25:20.303Z,9.20
2018-11-02T04:27:48.646Z,9.30
2018-11-02T04:30:16.977Z,9.30
2018-11-02T04:32:45.300Z,9.40
2018-11-02T04:35:13.645Z,9.50
2018-11-02T04:37:41.969Z,9.60
2018-11-02T04:40:10.309Z,9.60
2018-11-02T04:42:39.451Z,9.70
2018-11-02T04:45:07.813Z,9.70
2018-11-02T04:47:36.204Z,9.70
2018-11-02T04:50:04.530Z,9.70
2018-11-02T04:52:32.869Z,9.70
2018-11-02T04:55:01.205Z,9.70
2018-11-02T04:57:30.311Z,9.70
2018-11-02T04:59:58.633Z,9.70
2018-11-02T05:02:26.993Z,9.70
2018-11-02T05:04:55.349Z,9.70
2018-11-02T05:07:23.699Z,9.70
2018-11-02T05:09:52.135Z,9.70
2018-11-02T05:12:20.394Z,9.80
2018-11-02T05:14:48.739Z,9.80
2018-11-02T05:17:17.071Z,9.90
2018-11-02T05:19:45.387Z,9.90
2018-11-02T05:22:13.830Z,10.00
2018-11-02T05:24:42.150Z,10.00
2018-11-02T05:27:10.479Z,10.10
2018-11-02T05:29:38.817Z,10.10
2018-11-02T05:32:07.944Z,10.20
2018-11-02T05:34:36.275Z,10.20
2018-11-02T05:37:04.693Z,10.30
2018-11-02T05:39:33.111Z,10.40
2018-11-02T05:42:01.376Z,10.40
2018-11-02T05:44:29.699Z,10.40
2018-11-02T05:46:58.968Z,10.30
2018-11-02T05:49:27.307Z,10.30
2018-11-02T05:51:55.632Z,10.40
2018-11-02T05:54:24.184Z,10.40
2018-11-02T05:56:52.397Z,10.30
2018-11-02T05:59:20.762Z,10.40
2018-11-02T06:01:49.095Z,10.40
2018-11-02T06:04:17.483Z,10.40
2018-11-02T06:06:45.881Z,10.40
2018-11-02T06:09:14.205Z,10.40
2018-11-02T06:11:42.549Z,10.40
2018-11-02T06:14:10.917Z,10.30
2018-11-02T06:16:39.362Z,10.30
2018-11-02T06:19:07.643Z,10.30
2018-11-02T06:21:35.981Z,10.40
2018-11-02T06:24:04.458Z,10.40
2018-11-02T06:26:32.761Z,10.40
2018-11-02T06:29:01.098Z,10.40
2018-11-02T06:31:29.494Z,10.40
2018-11-02T06:33:57.776Z,10.50
2018-11-02T06:36:26.111Z,10.50
2018-11-02T06:38:54.629Z,10.50
2018-11-02T06:41:22.927Z,10.60
2018-11-02T06:43:51.271Z,10.60
2018-11-02T06:46:19.603Z,10.60
2018-11-02T06:48:47.955Z,10.60
2018-11-02T06:51:16.293Z,10.60
2018-11-02T06:53:44.679Z,10.60
2018-11-02T06:56:12.999Z,10.60
2018-11-02T06:58:41.320Z,10.70
2018-11-02T07:01:09.715Z,10.70
2018-11-02T07:03:38.045Z,10.70
2018-11-02T07:06:07.173Z,10.80
2018-11-02T07:08:36.325Z,10.80
2018-11-02T07:11:05.365Z,10.90
2018-11-02T07:13:33.753Z,10.80
2018-11-02T07:16:02.127Z,10.80
2018-11-02T07:18:30.509Z,10.80
2018-11-02T07:20:58.858Z,10.90
2018-11-02T07:23:27.984Z,10.90
2018-11-02T07:25:56.335Z,10.90
2018-11-02T07:28:25.438Z,11.10
2018-11-02T07:30:54.661Z,11.10
2018-11-02T07:33:23.037Z,11.20
2018-11-02T07:35:51.727Z,11.20
2018-11-02T07:38:20.100Z,11.30
2018-11-02T07:40:48.447Z,11.40
2018-11-02T07:43:17.676Z,11.50
2018-11-02T07:45:46.021Z,11.50
2018-11-02T07:48:15.127Z,11.60
2018-11-02T07:50:44.221Z,11.70
2018-11-02T07:53:12.625Z,11.70
2018-11-02T07:55:40.897Z,11.80
2018-11-02T07:58:09.271Z,11.90
2018-11-02T08:00:38.368Z,12.00
2018-11-02T08:03:06.715Z,12.00
2018-11-02T08:05:35.046Z,12.10
2018-11-02T08:08:03.381Z,12.10
2018-11-02T08:10:32.521Z,12.20
2018-11-02T08:13:00.888Z,12.20
2018-11-02T08:15:29.265Z,12.30
2018-11-02T08:17:57.601Z,12.30
2018-11-02T08:20:26.178Z,12.40
2018-11-02T08:22:54.493Z,12.50
2018-11-02T08:25:22.855Z,12.50
2018-11-02T08:27:51.197Z,12.50
2018-11-02T08:30:19.529Z,12.60
2018-11-02T08:32:48.644Z,12.50
2018-11-02T08:35:17.027Z,12.50
2018-11-02T08:37:45.385Z,12.50
2018-11-02T08:40:13.727Z,12.50
2018-11-02T08:42:42.056Z,12.40
2018-11-02T08:45:10.401Z,12.40
2018-11-02T08:47:38.745Z,12.30
2018-11-02T08:50:07.071Z,12.20
2018-11-02T08:52:35.477Z,12.10
2018-11-02T08:55:03.846Z,12.10
2018-11-02T08:57:32.942Z,11.90
2018-11-02T09:00:01.387Z,11.90
2018-11-02T09:02:30.406Z,11.70
2018-11-02T09:04:59.533Z,11.70
2018-11-02T09:07:27.935Z,11.70
2018-11-02T09:09:56.301Z,11.70
2018-11-02T09:12:24.645Z,11.70
2018-11-02T09:14:53.804Z,11.70
2018-11-02T09:17:22.121Z,11.70
2018-11-02T09:19:50.475Z,11.70
2018-11-02T09:22:19.256Z,11.70
2018-11-02T09:24:47.682Z,11.80
2018-11-02T09:27:16.090Z,11.80
2018-11-02T09:29:44.426Z,11.80
2018-11-02T09:32:13.552Z,11.60
2018-11-02T09:34:42.828Z,11.50
2018-11-02T09:37:11.173Z,11.50
2018-11-02T09:39:39.526Z,11.50
2018-11-02T09:42:07.891Z,11.50
2018-11-02T09:44:36.229Z,11.50
2018-11-02T09:47:05.348Z,11.60
2018-11-02T09:49:33.730Z,11.60
2018-11-02T09:52:02.151Z,11.60
2018-11-02T09:54:31.176Z,11.80
2018-11-02T09:57:00.342Z,11.80
2018-11-02T09:59:28.704Z,11.90
2018-11-02T10:01:57.161Z,11.90
2018-11-02T10:04:25.454Z,11.90
2018-11-02T10:06:53.828Z,12.00
2018-11-02T10:09:22.319Z,12.00
2018-11-02T10:11:51.302Z,11.90
2018-11-02T10:14:19.670Z,12.00
2018-11-02T10:16:48.001Z,11.90
2018-11-02T10:19:16.370Z,11.70
2018-11-02T10:21:44.687Z,11.70
2018-11-02T10:24:13.836Z,11.50
2018-11-02T10:26:42.148Z,11.50
2018-11-02T10:29:11.245Z,11.50
2018-11-02T10:31:40.348Z,11.40
2018-11-02T10:34:08.720Z,11.40
2018-11-02T10:36:37.056Z,11.40
2018-11-02T10:39:05.386Z,11.40
2018-11-02T10:41:34.509Z,11.30
2018-11-02T10:44:02.915Z,11.30
2018-11-02T10:46:31.281Z,11.30
2018-11-02T10:48:59.625Z,11.40
2018-11-02T10:51:28.715Z,11.50
2018-11-02T10:53:57.089Z,11.40
2018-11-02T10:56:26.222Z,11.50
2018-11-02T10:58:54.623Z,11.50
2018-11-02T11:04:22.797Z,11.60
2018-11-02T11:06:51.158Z,11.60
2018-11-02T11:09:20.281Z,11.60
2018-11-02T11:11:48.888Z,11.60
2018-11-02T11:14:17.004Z,11.60
2018-11-02T11:16:45.317Z,11.70
2018-11-02T11:19:13.699Z,11.70
2018-11-02T11:21:42.037Z,11.70
2018-11-02T11:24:11.201Z,11.70
2018-11-02T11:26:39.564Z,11.70
2018-11-02T11:29:07.953Z,11.80
2018-11-02T11:31:36.992Z,11.80
2018-11-02T11:34:06.124Z,11.80
2018-11-02T11:36:34.444Z,11.70
2018-11-02T11:39:02.797Z,11.70
2018-11-02T11:41:31.158Z,11.80
2018-11-02T11:43:59.576Z,11.80
2018-11-02T11:46:27.913Z,11.80
2018-11-02T11:48:56.478Z,11.80
2018-11-02T11:51:24.634Z,11.90
2018-11-02T11:53:53.748Z,12.10
2018-11-02T11:56:22.089Z,12.10
2018-11-02T11:58:50.447Z,12.20
2018-11-02T12:01:18.817Z,12.40
2018-11-02T12:03:47.177Z,12.60
2018-11-02T12:06:15.522Z,12.70
2018-11-02T12:08:43.885Z,12.70
2018-11-02T12:11:12.206Z,12.80
2018-11-02T12:13:40.570Z,12.80
2018-11-02T12:16:09.058Z,12.90
2018-11-02T12:18:37.233Z,13.00
2018-11-02T12:21:06.347Z,13.20
2018-11-02T12:23:34.754Z,13.20
2018-11-02T12:26:03.064Z,13.00
2018-11-02T12:28:31.451Z,12.90
2018-11-02T12:30:59.777Z,12.90
2018-11-02T12:33:28.121Z,12.80
2018-11-02T12:35:56.565Z,12.70
2018-11-02T12:38:24.940Z,12.70
2018-11-02T12:40:53.313Z,12.70
2018-11-02T12:43:21.655Z,12.60
2018-11-02T12:45:50.016Z,12.60
2018-11-02T12:48:19.165Z,12.50
2018-11-02T12:50:47.460Z,12.50
2018-11-02T12:53:15.931Z,12.50
2018-11-02T12:55:44.262Z,12.30
2018-11-02T12:58:12.690Z,12.20
2018-11-02T13:00:41.016Z,12.20
2018-11-02T13:03:10.140Z,12.20
2018-11-02T13:05:38.495Z,12.20
2018-11-02T13:08:06.876Z,12.20
2018-11-02T13:10:35.219Z,12.20
2018-11-02T13:13:03.576Z,12.40
2018-11-02T13:15:32.071Z,12.90
2018-11-02T13:18:00.517Z,13.80
2018-11-02T13:20:28.849Z,15.20
2018-11-02T13:22:57.248Z,16.00
2018-11-02T13:25:26.400Z,17.90
2018-11-02T13:27:54.713Z,17.90
2018-11-02T13:30:24.017Z,19.30
2018-11-02T13:32:52.327Z,19.20
2018-11-02T13:35:20.717Z,19.70
2018-11-02T13:37:49.143Z,19.90
2018-11-02T13:40:17.491Z,19.90
2018-11-02T13:42:45.873Z,19.80
2018-11-02T13:45:14.221Z,19.20
2018-11-02T13:47:42.557Z,18.10
2018-11-02T13:50:11.779Z,16.10
2018-11-02T13:52:40.076Z,16.10
2018-11-02T13:55:08.440Z,15.40
2018-11-02T13:57:36.778Z,14.80
2018-11-02T14:00:05.156Z,14.20
2018-11-02T14:02:34.410Z,13.40
2018-11-02T14:05:02.948Z,13.40
2018-11-02T14:07:31.284Z,13.10
2018-11-02T14:09:59.658Z,12.90
2018-11-02T14:12:28.019Z,12.80
2018-11-02T14:14:56.352Z,12.60
2018-11-02T14:17:24.705Z,12.50
2018-11-02T14:19:53.078Z,12.40
2018-11-02T14:22:21.767Z,12.30
2018-11-02T14:24:50.126Z,12.20
2018-11-02T14:27:18.472Z,12.20
2018-11-02T14:29:47.621Z,12.00
2018-11-02T14:32:15.982Z,12.00
2018-11-02T14:34:44.354Z,11.90
2018-11-02T14:37:12.700Z,11.90
2018-11-02T14:39:41.039Z,11.80
2018-11-02T14:42:09.413Z,11.80
2018-11-02T14:44:37.762Z,11.70
2018-11-02T14:47:06.118Z,11.70
2018-11-02T14:49:34.490Z,11.60
2018-11-02T14:52:02.826Z,11.60
2018-11-02T14:54:31.173Z,11.60
2018-11-02T14:57:00.298Z,11.50
2018-11-02T14:59:28.681Z,11.50
2018-11-02T15:01:57.976Z,11.50
2018-11-02T15:04:26.329Z,11.40
2018-11-02T15:06:55.457Z,11.40
2018-11-02T15:09:23.804Z,11.30
2018-11-02T15:11:53.135Z,11.20
2018-11-02T15:14:21.540Z,11.20
2018-11-02T15:16:49.911Z,11.20
2018-11-02T15:19:18.238Z,11.20
2018-11-02T15:21:47.368Z,11.10
2018-11-02T15:24:15.713Z,11.00
2018-11-02T15:26:44.960Z,11.00
2018-11-02T15:29:13.279Z,11.00
2018-11-02T15:31:42.372Z,10.90
2018-11-02T15:34:10.734Z,10.90
2018-11-02T15:36:39.076Z,10.90
2018-11-02T15:39:07.426Z,10.90
2018-11-02T15:41:35.767Z,10.90
2018-11-02T15:44:04.255Z,10.80
2018-11-02T15:46:32.552Z,10.80
2018-11-02T15:49:01.672Z,10.80
2018-11-02T15:51:30.030Z,10.80
2018-11-02T15:53:58.471Z,10.80
2018-11-02T15:56:26.811Z,10.70
2018-11-02T15:58:55.197Z,10.70
2018-11-02T16:01:23.574Z,10.70
2018-11-02T16:03:51.940Z,10.70
2018-11-02T16:06:21.040Z,10.60
2018-11-02T16:08:50.158Z,10.60
2018-11-02T16:11:18.510Z,10.60
2018-11-02T16:13:47.649Z,10.50
2018-11-02T16:16:16.035Z,10.50
2018-11-02T16:18:44.374Z,10.50
2018-11-02T16:21:12.748Z,10.50
2018-11-02T16:23:41.885Z,10.50
2018-11-02T16:26:10.220Z,10.50
2018-11-02T16:28:39.335Z,10.50
2018-11-02T16:31:07.694Z,10.50
2018-11-02T16:33:36.835Z,10.40
2018-11-02T16:36:05.189Z,10.40
2018-11-02T16:38:33.512Z,10.40
2018-11-02T16:41:01.860Z,10.40
2018-11-02T16:43:30.278Z,10.30
2018-11-02T16:45:58.711Z,10.30
2018-11-02T16:48:27.050Z,10.30
2018-11-02T16:50:55.470Z,10.20
2018-11-02T16:53:23.842Z,10.20
2018-11-02T16:55:52.178Z,10.20
2018-11-02T16:58:20.537Z,10.20
2018-11-02T17:00:48.880Z,10.20
2018-11-02T17:03:17.230Z,10.20
2018-11-02T17:05:46.389Z,10.20
2018-11-02T17:08:14.726Z,10.20
2018-11-02T17:10:43.079Z,10.20
2018-11-02T17:13:11.424Z,10.20
2018-11-02T17:15:39.748Z,10.10
2018-11-02T17:18:08.990Z,10.10
2018-11-02T17:20:37.245Z,10.10
2018-11-02T17:23:05.738Z,10.10
2018-11-02T17:25:34.072Z,10.00
2018-11-02T17:28:02.592Z,10.00
2018-11-02T17:30:30.933Z,10.00
2018-11-02T17:32:59.286Z,9.90
2018-11-02T17:35:27.628Z,9.90
2018-11-02T17:37:56.215Z,9.90
2018-11-02T17:40:24.593Z,9.80
2018-11-02T17:42:52.932Z,9.80
2018-11-02T17:45:21.276Z,9.80
2018-11-02T17:47:50.760Z,9.70
2018-11-02T17:50:18.966Z,9.70
2018-11-02T17:52:47.286Z,9.70
2018-11-02T17:55:16.402Z,9.60
2018-11-02T17:57:44.740Z,9.60
2018-11-02T18:00:13.089Z,9.60
2018-11-02T18:02:41.454Z,9.50
2018-11-02T18:05:10.327Z,9.50
2018-11-02T18:07:38.729Z,9.50
2018-11-02T18:10:07.189Z,9.50
2018-11-02T18:12:35.536Z,9.40
2018-11-02T18:15:03.871Z,9.40
2018-11-02T18:17:32.225Z,9.30
2018-11-02T18:20:00.554Z,9.30
2018-11-02T18:22:28.910Z,9.30
2018-11-02T18:24:57.271Z,9.20
2018-11-02T18:27:25.638Z,9.20
2018-11-02T18:29:53.987Z,9.20
2018-11-02T18:32:22.418Z,9.10
2018-11-02T18:34:50.751Z,9.10
2018-11-02T18:37:19.080Z,9.00
2018-11-02T18:39:47.482Z,9.00
2018-11-02T18:42:16.015Z,9.00
2018-11-02T18:44:44.209Z,9.00
2018-11-02T18:47:12.600Z,9.00
2018-11-02T18:49:40.937Z,9.00
2018-11-02T18:52:10.047Z,9.00
2018-11-02T18:54:38.438Z,9.00
2018-11-02T18:57:06.846Z,9.10
2018-11-02T18:59:35.211Z,9.10
2018-11-02T19:02:03.542Z,9.10
2018-11-02T19:04:32.874Z,9.10
2018-11-02T19:07:01.202Z,9.00
2018-11-02T19:09:29.637Z,9.00
2018-11-02T19:11:57.976Z,9.00
2018-11-02T19:14:26.302Z,8.90
2018-11-02T19:16:54.655Z,8.90
2018-11-02T19:19:23.128Z,8.90
2018-11-02T19:21:51.513Z,8.80
2018-11-02T19:24:19.854Z,8.80
2018-11-02T19:26:48.323Z,8.80
2018-11-02T19:29:16.628Z,8.70
2018-11-02T19:31:44.970Z,8.80
2018-11-02T19:34:13.437Z,8.80
2018-11-02T19:36:41.838Z,8.80
2018-11-02T19:39:10.165Z,8.80
2018-11-02T19:41:39.279Z,8.90
2018-11-02T19:44:07.749Z,8.80
2018-11-02T19:46:36.140Z,8.80
2018-11-02T19:49:04.553Z,8.90
2018-11-02T19:51:33.603Z,8.90
2018-11-02T19:54:01.949Z,8.90
2018-11-02T19:56:30.300Z,8.90
2018-11-02T19:58:58.634Z,8.90
2018-11-02T20:01:27.032Z,8.90
2018-11-02T20:03:55.422Z,8.90
2018-11-02T20:06:23.790Z,8.90
2018-11-02T20:08:52.147Z,8.90
2018-11-02T20:11:21.368Z,8.90
2018-11-02T20:13:49.747Z,8.90
2018-11-02T20:16:18.123Z,8.90
2018-11-02T20:18:46.445Z,9.00
2018-11-02T20:21:14.771Z,8.90
2018-11-02T20:23:43.888Z,8.90
2018-11-02T20:26:12.224Z,8.90
2018-11-02T20:28:40.657Z,9.00
2018-11-02T20:31:09.004Z,9.00
2018-11-02T20:33:38.222Z,9.00
2018-11-02T20:36:06.582Z,8.90
2018-11-02T20:38:35.676Z,9.00
2018-11-02T20:41:04.798Z,9.00
2018-11-02T20:43:33.119Z,9.00
2018-11-02T20:46:01.491Z,9.00
2018-11-02T20:48:29.827Z,9.00
2018-11-02T20:50:58.184Z,9.00
2018-11-02T20:53:27.268Z,8.90
2018-11-02T20:55:56.380Z,8.90
2018-11-02T20:58:25.480Z,8.90
2018-11-02T21:00:54.594Z,9.00
2018-11-02T21:03:23.009Z,9.00
2018-11-02T21:05:51.501Z,9.00
2018-11-02T21:08:19.856Z,9.00
2018-11-02T21:10:48.203Z,9.00
2018-11-02T21:13:16.572Z,9.00
2018-11-02T21:15:45.673Z,9.00
2018-11-02T21:18:14.029Z,9.00
2018-11-02T21:20:42.476Z,9.00
2018-11-02T21:23:10.761Z,9.00
2018-11-02T21:25:39.223Z,9.10
2018-11-02T21:28:07.580Z,9.10
2018-11-02T21:30:35.947Z,9.10
2018-11-02T21:33:05.063Z,9.10
2018-11-02T21:35:33.398Z,9.10
2018-11-02T21:38:01.839Z,9.10
2018-11-02T21:40:30.111Z,9.10
2018-11-02T21:42:58.471Z,9.10
2018-11-02T21:45:26.828Z,9.10
2018-11-02T21:47:55.242Z,9.00
2018-11-02T21:50:23.580Z,9.00
2018-11-02T21:52:52.678Z,8.90
2018-11-02T21:55:21.013Z,8.90
2018-11-02T21:57:49.338Z,8.90
2018-11-02T22:00:18.506Z,8.80
2018-11-02T22:02:46.975Z,8.80
2018-11-02T22:05:15.288Z,8.80
2018-11-02T22:07:44.447Z,8.80
2018-11-02T22:10:12.843Z,8.80
2018-11-02T22:12:41.180Z,8.90
2018-11-02T22:15:09.571Z,8.90
2018-11-02T22:17:37.899Z,8.90
2018-11-02T22:20:06.322Z,8.90
2018-11-02T22:22:34.674Z,8.90
2018-11-02T22:25:03.798Z,8.80
2018-11-02T22:27:32.148Z,8.80
2018-11-02T22:30:01.255Z,8.80
2018-11-02T22:32:29.657Z,8.80
2018-11-02T22:34:58.030Z,8.80
2018-11-02T22:37:26.425Z,8.80
2018-11-02T22:39:54.739Z,8.80
2018-11-02T22:42:23.100Z,8.80
2018-11-02T22:44:51.422Z,8.80
2018-11-02T22:47:20.543Z,8.80
2018-11-02T22:49:48.872Z,8.80
2018-11-02T22:52:17.286Z,8.80
2018-11-02T22:54:45.664Z,8.80
2018-11-02T22:57:13.994Z,8.80
2018-11-02T22:59:42.326Z,8.80
2018-11-02T23:02:10.686Z,8.80
2018-11-02T23:04:39.045Z,8.80
2018-11-02T23:07:07.383Z,8.80
2018-11-02T23:09:35.720Z,8.80
2018-11-02T23:12:04.832Z,8.80
2018-11-02T23:14:33.956Z,8.80
2018-11-02T23:17:02.453Z,8.80
2018-11-02T23:19:30.809Z,8.80
2018-11-02T23:21:59.115Z,8.70
2018-11-02T23:24:27.492Z,8.70
2018-11-02T23:26:55.827Z,8.70
2018-11-02T23:29:24.204Z,8.80
2018-11-02T23:31:52.502Z,8.70
2018-11-02T23:34:20.868Z,8.70
2018-11-02T23:36:49.202Z,8.70
2018-11-02T23:39:17.659Z,8.70
2018-11-02T23:41:45.993Z,8.70
2018-11-02T23:44:15.214Z,8.60
2018-11-02T23:46:43.565Z,8.60
2018-11-02T23:49:12.687Z,8.60
2018-11-02T23:51:41.054Z,8.60
2018-11-02T23:54:09.408Z,8.60
2018-11-02T23:56:37.846Z,8.60
2018-11-02T23:59:06.312Z,6.70
